Time;durP1;ratioP1;P1;durP2;ratioP2;P2;SDS_P1;SDS_P2;PMS_P1;PMS_P2;Temp;Humidity;BMP_temperature;BMP_pressure;BME280_temperature;BME280_humidity;BME280_pressure;Samples;Min_cycle;Max_cycle;Signal;HPM_P1;HPM_P2
2024/01/29 00:00:28;;;;;;;33.17;17.20;;;0.40;99.90;;;;;;5174972;28;20044;-36
2024/01/29 00:02:59;;;;;;;34.97;19.40;;;0.50;99.90;;;;;;5187862;28;20238;-37
2024/01/29 00:05:31;;;;;;;29.63;17.33;;;0.60;99.90;;;;;;5208475;28;20336;-35
2024/01/29 00:08:03;;;;;;;28.95;14.15;;;0.50;99.90;;;;;;5180217;28;20213;-36
2024/01/29 00:10:34;;;;;;;27.13;14.52;;;0.40;99.90;;;;;;5184626;28;20029;-35
2024/01/29 00:13:05;;;;;;;24.80;10.73;;;0.40;99.90;;;;;;5201180;28;20046;-36
2024/01/29 00:15:36;;;;;;;27.80;13.63;;;0.50;99.90;;;;;;5191274;28;20156;-36
2024/01/29 00:18:07;;;;;;;23.65;12.00;;;0.60;99.90;;;;;;5184075;28;20039;-41
2024/01/29 00:20:38;;;;;;;20.55;10.07;;;0.60;99.90;;;;;;5166361;28;20360;-35
2024/01/29 00:23:10;;;;;;;26.98;13.70;;;0.60;99.90;;;;;;5187453;28;20206;-35
2024/01/29 00:25:41;;;;;;;27.83;13.00;;;0.50;99.90;;;;;;5187216;28;20041;-35
2024/01/29 00:28:12;;;;;;;27.85;13.98;;;0.40;99.90;;;;;;5180382;28;20258;-36
2024/01/29 00:30:43;;;;;;;23.25;11.85;;;0.30;99.90;;;;;;5171684;28;20029;-35
2024/01/29 00:33:15;;;;;;;22.67;11.68;;;0.20;99.90;;;;;;5186021;28;20340;-36
2024/01/29 00:35:46;;;;;;;22.35;12.65;;;0.30;99.90;;;;;;5189238;28;20313;-35
2024/01/29 00:38:17;;;;;;;38.22;17.40;;;0.40;99.90;;;;;;5176678;28;20048;-35
2024/01/29 00:40:48;;;;;;;29.30;15.25;;;0.50;99.90;;;;;;5184669;28;20309;-36
2024/01/29 00:43:19;;;;;;;23.73;12.05;;;0.40;99.90;;;;;;5180116;28;20115;-41
2024/01/29 00:45:51;;;;;;;27.60;13.02;;;0.40;99.90;;;;;;5179547;28;20372;-36
2024/01/29 00:48:23;;;;;;;27.85;14.52;;;0.30;99.90;;;;;;5175467;28;20596;-35
2024/01/29 00:50:55;;;;;;;26.15;13.57;;;0.40;99.90;;;;;;5182976;28;20031;-36
2024/01/29 00:53:27;;;;;;;28.17;15.60;;;0.40;99.90;;;;;;5200259;28;20283;-36
2024/01/29 00:55:58;;;;;;;42.88;19.17;;;0.40;99.90;;;;;;5185733;28;20033;-36
2024/01/29 00:58:29;;;;;;;35.13;17.60;;;0.40;99.90;;;;;;5176657;28;20033;-35
2024/01/29 01:01:00;;;;;;;30.25;16.42;;;0.40;99.90;;;;;;5196267;28;20391;-36
2024/01/29 01:03:31;;;;;;;34.20;16.60;;;0.40;99.90;;;;;;5190361;28;20039;-36
2024/01/29 01:06:03;;;;;;;25.65;14.55;;;0.30;99.90;;;;;;5181629;28;20469;-36
2024/01/29 01:08:34;;;;;;;17.95;10.23;;;0.30;99.90;;;;;;5176226;28;20336;-36
2024/01/29 01:11:06;;;;;;;20.45;11.88;;;0.20;99.90;;;;;;5182114;28;20240;-36
2024/01/29 01:13:37;;;;;;;21.23;12.82;;;-0.10;99.90;;;;;;5179929;28;20105;-37
2024/01/29 01:16:08;;;;;;;28.55;11.88;;;0.00;99.90;;;;;;5182482;28;20154;-37
2024/01/29 01:18:40;;;;;;;26.63;13.20;;;0.00;99.90;;;;;;5187025;28;20360;-36
2024/01/29 01:21:11;;;;;;;23.85;11.85;;;0.10;99.90;;;;;;5185904;28;20055;-38
2024/01/29 01:23:42;;;;;;;19.65;10.52;;;0.00;99.90;;;;;;5193272;28;20054;-37
2024/01/29 01:26:13;;;;;;;23.80;11.07;;;0.00;99.90;;;;;;5182328;28;20235;-38
2024/01/29 01:28:45;;;;;;;15.75;10.10;;;0.20;99.90;;;;;;5188304;28;20191;-35
2024/01/29 01:31:16;;;;;;;23.17;9.98;;;0.30;99.90;;;;;;5165284;28;20037;-36
2024/01/29 01:33:47;;;;;;;24.10;12.27;;;0.30;99.90;;;;;;5187883;28;20029;-37
2024/01/29 01:36:18;;;;;;;19.10;9.65;;;0.20;99.90;;;;;;5182760;28;20037;-36
2024/01/29 01:38:49;;;;;;;17.58;9.27;;;0.30;99.90;;;;;;5169007;28;20052;-36
2024/01/29 01:41:21;;;;;;;20.55;9.27;;;0.20;99.90;;;;;;5184770;28;20037;-36
2024/01/29 01:43:52;;;;;;;23.33;12.25;;;-0.10;99.90;;;;;;5189016;28;20325;-38
2024/01/29 01:46:23;;;;;;;26.30;12.00;;;-0.10;99.90;;;;;;5173490;28;20250;-37
2024/01/29 01:48:56;;;;;;;27.63;13.60;;;0.10;99.90;;;;;;5182721;28;20055;-37
2024/01/29 01:51:27;;;;;;;21.70;12.05;;;0.00;99.90;;;;;;5179943;28;20036;-37
2024/01/29 01:54:00;;;;;;;27.05;12.48;;;0.00;99.90;;;;;;5181821;28;20209;-35
2024/01/29 01:56:32;;;;;;;31.42;13.95;;;0.00;99.90;;;;;;5185842;28;20026;-37
2024/01/29 01:59:04;;;;;;;33.50;15.55;;;-0.10;99.90;;;;;;5164474;28;20038;-36
2024/01/29 02:01:36;;;;;;;25.60;12.80;;;-0.20;99.90;;;;;;5170052;28;20353;-36
2024/01/29 02:04:08;;;;;;;25.08;11.93;;;-0.50;99.90;;;;;;5187810;28;20352;-37
2024/01/29 02:06:39;;;;;;;21.60;11.50;;;-0.30;99.90;;;;;;5184267;28;20194;-36
2024/01/29 02:09:11;;;;;;;19.05;11.38;;;-0.50;99.90;;;;;;5190350;28;20321;-36
2024/01/29 02:11:42;;;;;;;27.17;11.00;;;-0.40;99.90;;;;;;5190147;28;20327;-36
2024/01/29 02:14:13;;;;;;;23.38;12.82;;;-0.30;99.90;;;;;;5186880;28;20037;-37
2024/01/29 02:16:44;;;;;;;31.23;12.57;;;-0.30;99.90;;;;;;5180830;28;20297;-37
2024/01/29 02:19:16;;;;;;;25.30;12.32;;;-0.10;99.90;;;;;;5185862;28;20127;-36
2024/01/29 02:21:49;;;;;;;21.33;12.55;;;-0.30;99.90;;;;;;5185723;28;20357;-36
2024/01/29 02:24:20;;;;;;;26.75;13.18;;;-0.30;99.90;;;;;;5187685;28;20036;-37
2024/01/29 02:26:51;;;;;;;22.15;12.25;;;-0.40;99.90;;;;;;5176513;28;20029;-37
2024/01/29 02:29:22;;;;;;;21.92;11.68;;;-0.40;99.90;;;;;;5183509;28;20051;-35
2024/01/29 02:31:53;;;;;;;29.88;13.00;;;-0.30;99.90;;;;;;5183008;28;20321;-35
2024/01/29 02:34:25;;;;;;;25.65;12.77;;;-0.40;99.90;;;;;;5184821;28;20329;-37
2024/01/29 02:36:56;;;;;;;25.77;12.25;;;-0.40;99.90;;;;;;5181448;28;20025;-36
2024/01/29 02:39:27;;;;;;;16.30;10.90;;;-0.30;99.90;;;;;;5184896;28;20356;-37
2024/01/29 02:41:59;;;;;;;20.23;11.23;;;-0.50;99.90;;;;;;5186523;28;20393;-35
2024/01/29 02:44:30;;;;;;;20.67;11.23;;;-0.40;99.90;;;;;;5187128;28;20033;-35
2024/01/29 02:47:01;;;;;;;23.40;11.05;;;-0.40;99.90;;;;;;5178219;28;20192;-35
2024/01/29 02:49:33;;;;;;;22.60;11.00;;;-0.50;99.90;;;;;;5181657;28;20222;-35
2024/01/29 02:52:04;;;;;;;18.70;11.93;;;-0.40;99.90;;;;;;5182851;28;20301;-36
2024/01/29 02:54:36;;;;;;;24.02;12.35;;;-0.50;99.90;;;;;;5183695;28;20305;-35
2024/01/29 02:57:07;;;;;;;26.17;12.15;;;-0.50;99.90;;;;;;5184428;28;20037;-35
2024/01/29 02:59:38;;;;;;;19.27;11.48;;;-0.40;99.90;;;;;;5182092;28;20051;-35
2024/01/29 03:02:09;;;;;;;24.98;11.95;;;-0.40;99.90;;;;;;5184240;28;20796;-34
2024/01/29 03:04:41;;;;;;;20.98;11.52;;;-0.50;99.90;;;;;;5205039;28;20079;-32
2024/01/29 03:07:12;;;;;;;23.13;13.85;;;-0.60;99.90;;;;;;5190156;28;20069;-33
2024/01/29 03:09:43;;;;;;;20.05;12.05;;;-0.70;99.90;;;;;;5189078;28;20324;-34
2024/01/29 03:12:14;;;;;;;23.55;13.10;;;-0.40;99.90;;;;;;5179827;28;20041;-34
2024/01/29 03:14:45;;;;;;;21.85;10.73;;;-0.70;99.90;;;;;;5193372;28;20317;-33
2024/01/29 03:17:17;;;;;;;18.98;12.05;;;-0.70;99.90;;;;;;5178091;28;20037;-34
2024/01/29 03:19:48;;;;;;;19.92;11.60;;;-0.70;99.90;;;;;;5198397;28;20250;-34
2024/01/29 03:22:19;;;;;;;20.08;11.88;;;-0.70;99.90;;;;;;5196649;28;20037;-34
2024/01/29 03:24:50;;;;;;;21.85;13.30;;;-0.70;99.90;;;;;;5183733;28;20143;-32
2024/01/29 03:27:21;;;;;;;20.02;11.85;;;-0.70;99.90;;;;;;5183700;28;20388;-31
2024/01/29 03:29:52;;;;;;;24.75;13.05;;;-0.60;99.90;;;;;;5199077;28;20041;-33
2024/01/29 03:32:24;;;;;;;18.52;12.23;;;-0.60;99.90;;;;;;5205036;28;20199;-35
2024/01/29 03:34:55;;;;;;;24.17;13.55;;;-0.50;99.90;;;;;;5199960;28;20201;-35
2024/01/29 03:37:26;;;;;;;20.13;13.25;;;-0.40;99.90;;;;;;5179277;28;20076;-32
2024/01/29 03:39:57;;;;;;;26.15;13.30;;;-0.60;99.90;;;;;;5186722;28;20044;-33
2024/01/29 03:42:28;;;;;;;20.38;11.68;;;-0.70;99.90;;;;;;5187772;28;20042;-33
2024/01/29 03:45:00;;;;;;;21.00;14.15;;;-0.60;99.90;;;;;;5190196;28;20059;-32
2024/01/29 03:47:31;;;;;;;24.63;13.85;;;-0.50;99.90;;;;;;5163214;28;20055;-32
2024/01/29 03:50:04;;;;;;;22.80;12.63;;;-0.50;99.90;;;;;;5185344;28;20037;-33
2024/01/29 03:52:54;;;;;;;22.67;13.13;;;-0.50;99.90;;;;;;5178784;28;20233;-34
2024/01/29 03:55:25;;;;;;;24.73;12.93;;;-0.50;99.90;;;;;;5176557;28;20040;-34
2024/01/29 03:57:56;;;;;;;28.13;13.93;;;-0.60;99.90;;;;;;5179067;28;20044;-30
2024/01/29 04:00:30;;;;;;;23.93;14.27;;;-0.70;99.90;;;;;;5179795;28;20099;-34
2024/01/29 04:03:03;;;;;;;21.67;12.55;;;-0.60;99.90;;;;;;5189529;28;20029;-34
2024/01/29 04:05:34;;;;;;;21.63;13.70;;;-0.60;99.90;;;;;;5178447;28;20384;-33
2024/01/29 04:08:06;;;;;;;22.50;11.70;;;-0.40;99.90;;;;;;5185374;28;20441;-33
2024/01/29 04:10:37;;;;;;;19.55;12.18;;;-0.60;99.90;;;;;;5187165;28;20155;-31
2024/01/29 04:13:08;;;;;;;23.75;12.38;;;-0.60;99.90;;;;;;5182535;28;20250;-32
2024/01/29 04:15:40;;;;;;;22.00;13.03;;;-0.50;99.90;;;;;;5172418;28;20097;-31
2024/01/29 04:18:11;;;;;;;22.80;13.07;;;-0.60;99.90;;;;;;5184840;28;20037;-31
2024/01/29 04:20:42;;;;;;;25.13;14.43;;;-0.70;99.90;;;;;;5202569;28;20287;-31
2024/01/29 04:23:14;;;;;;;32.75;13.73;;;-0.80;99.90;;;;;;5167107;28;20033;-31
2024/01/29 04:25:45;;;;;;;24.10;13.80;;;-0.70;99.90;;;;;;5177882;28;20373;-32
2024/01/29 04:28:16;;;;;;;22.27;12.50;;;-0.80;99.90;;;;;;5191760;28;20033;-31
2024/01/29 04:30:47;;;;;;;27.08;15.35;;;-0.70;99.90;;;;;;5201943;28;20055;-31
2024/01/29 04:33:18;;;;;;;27.70;15.47;;;-0.60;99.90;;;;;;5189970;28;20033;-30
2024/01/29 04:35:50;;;;;;;24.58;13.80;;;-0.70;99.90;;;;;;5172690;28;20290;-32
2024/01/29 04:38:21;;;;;;;32.30;14.65;;;-0.60;99.90;;;;;;5182599;28;20037;-31
2024/01/29 04:40:52;;;;;;;26.15;14.65;;;-0.90;1.00;;;;;;5186983;28;20300;-34
2024/01/29 04:43:23;;;;;;;25.95;15.15;;;-0.90;1.00;;;;;;5201234;28;20025;-34
2024/01/29 04:45:54;;;;;;;28.17;14.07;;;-1.00;9.40;;;;;;5172736;28;20212;-32
2024/01/29 04:48:26;;;;;;;22.80;13.93;;;-1.10;99.90;;;;;;5188860;28;20234;-33
2024/01/29 04:50:57;;;;;;;23.73;13.50;;;-1.00;99.90;;;;;;5188781;28;20040;-31
2024/01/29 04:53:28;;;;;;;24.65;14.38;;;-1.00;99.90;;;;;;5182793;28;20387;-31
2024/01/29 04:56:02;;;;;;;22.97;13.83;;;-0.90;99.90;;;;;;5194254;28;20039;-31
2024/01/29 04:58:34;;;;;;;23.58;13.50;;;-0.90;99.90;;;;;;5185234;28;20030;-31
2024/01/29 05:01:05;;;;;;;23.52;14.23;;;-0.90;99.90;;;;;;5163793;28;20033;-32
2024/01/29 05:03:36;;;;;;;24.27;13.80;;;-0.80;99.90;;;;;;5184192;28;20033;-33
2024/01/29 05:06:08;;;;;;;26.05;14.55;;;-1.00;99.90;;;;;;5183613;28;20059;-31
2024/01/29 05:08:39;;;;;;;21.25;13.10;;;-1.10;99.90;;;;;;5186638;28;20030;-31
2024/01/29 05:11:10;;;;;;;29.02;14.02;;;-1.00;99.90;;;;;;5189287;28;20033;-31
2024/01/29 05:13:43;;;;;;;19.45;12.52;;;-1.00;99.90;;;;;;5194593;28;20029;-30
2024/01/29 05:16:15;;;;;;;20.90;11.77;;;-1.00;99.90;;;;;;5177338;28;20432;-31
2024/01/29 05:18:47;;;;;;;22.67;14.43;;;-1.10;99.90;;;;;;5185862;28;20271;-31
2024/01/29 05:21:19;;;;;;;24.58;12.75;;;-1.10;99.90;;;;;;5189239;28;20310;-32
2024/01/29 05:23:50;;;;;;;23.63;13.60;;;-1.00;99.90;;;;;;5196945;28;20033;-31
2024/01/29 05:26:21;;;;;;;26.65;15.35;;;-1.00;99.90;;;;;;5185180;28;20029;-30
2024/01/29 05:28:53;;;;;;;28.80;16.65;;;-1.20;99.90;;;;;;5200010;28;20037;-30
2024/01/29 05:31:24;;;;;;;27.77;15.02;;;-1.00;99.90;;;;;;5189672;28;20152;-33
2024/01/29 05:33:56;;;;;;;29.67;16.92;;;-1.00;99.90;;;;;;5197665;28;20227;-31
2024/01/29 05:36:27;;;;;;;30.27;15.90;;;-1.30;99.90;;;;;;5182335;28;20469;-29
2024/01/29 05:38:58;;;;;;;27.25;14.13;;;-1.20;99.90;;;;;;5187432;28;20063;-31
2024/01/29 05:41:29;;;;;;;28.13;15.68;;;-1.30;99.90;;;;;;5190720;28;20027;-30
2024/01/29 05:44:00;;;;;;;28.00;15.97;;;-1.20;99.90;;;;;;5168674;28;20029;-30
2024/01/29 05:46:32;;;;;;;30.53;14.30;;;-1.20;99.90;;;;;;5174060;28;20373;-29
2024/01/29 05:49:03;;;;;;;29.08;16.52;;;-1.20;99.90;;;;;;5183514;28;20055;-31
2024/01/29 05:51:34;;;;;;;27.03;16.23;;;-1.20;99.90;;;;;;5177352;28;20385;-30
2024/01/29 05:54:05;;;;;;;25.30;14.13;;;-1.20;99.90;;;;;;5172171;28;20057;-31
2024/01/29 05:56:42;;;;;;;33.45;16.42;;;-1.10;99.90;;;;;;5181425;28;20021;-30
2024/01/29 05:59:13;;;;;;;25.37;14.07;;;-1.10;99.90;;;;;;5186333;28;20025;-30
2024/01/29 06:01:44;;;;;;;29.42;18.75;;;-1.20;99.90;;;;;;5181883;28;20029;-35
2024/01/29 06:04:16;;;;;;;37.43;20.20;;;-1.10;99.90;;;;;;5185450;28;20279;-31
2024/01/29 06:06:47;;;;;;;26.30;17.63;;;-1.10;99.90;;;;;;5190506;28;20047;-31
2024/01/29 06:09:19;;;;;;;32.30;18.65;;;-1.10;99.90;;;;;;5199781;28;20033;-31
2024/01/29 06:11:51;;;;;;;35.65;20.23;;;-1.00;99.90;;;;;;5191816;28;20033;-32
2024/01/29 06:14:22;;;;;;;37.22;18.92;;;-1.10;99.90;;;;;;5180004;28;20033;-28
2024/01/29 06:16:56;;;;;;;27.10;16.97;;;-1.10;99.90;;;;;;5190299;28;20301;-31
2024/01/29 06:19:29;;;;;;;22.20;15.13;;;-1.20;99.90;;;;;;5167529;28;20038;-30
2024/01/29 06:22:00;;;;;;;29.53;18.47;;;-1.30;99.90;;;;;;5184866;28;20029;-31
2024/01/29 06:24:31;;;;;;;34.47;20.50;;;-1.40;99.90;;;;;;5173446;28;20043;-31
2024/01/29 06:27:02;;;;;;;37.13;21.47;;;-1.30;99.90;;;;;;5190526;28;20041;-35
2024/01/29 06:29:33;;;;;;;30.00;18.52;;;-1.30;99.90;;;;;;5206987;28;20448;-32
2024/01/29 06:32:05;;;;;;;33.97;19.40;;;-1.30;99.90;;;;;;5187457;28;20376;-30
2024/01/29 06:34:36;;;;;;;44.47;21.17;;;-1.30;99.90;;;;;;5182777;28;20317;-30
2024/01/29 06:37:07;;;;;;;37.80;18.58;;;-1.40;99.90;;;;;;5181174;28;20029;-32
2024/01/29 06:39:39;;;;;;;29.80;16.37;;;-1.20;99.90;;;;;;5188966;28;20226;-30
2024/01/29 06:42:11;;;;;;;33.80;20.27;;;-0.90;99.90;;;;;;5191010;28;20181;-32
2024/01/29 06:44:42;;;;;;;32.45;20.10;;;-0.80;99.90;;;;;;5178766;28;20694;-32
2024/01/29 06:47:17;;;;;;;38.55;21.90;;;-0.70;99.90;;;;;;5184275;28;20064;-32
2024/01/29 06:49:48;;;;;;;44.03;26.63;;;-0.70;99.90;;;;;;5186446;28;20049;-31
2024/01/29 06:52:20;;;;;;;31.83;19.50;;;-1.10;99.90;;;;;;5183037;28;20226;-36
2024/01/29 06:54:52;;;;;;;45.92;27.13;;;-0.70;99.90;;;;;;5191551;28;20043;-33
2024/01/29 06:57:23;;;;;;;42.55;25.85;;;-0.20;99.90;;;;;;5188698;28;20266;-31
2024/01/29 06:59:54;;;;;;;44.90;28.08;;;0.10;99.90;;;;;;5185134;28;20146;-33
2024/01/29 07:02:26;;;;;;;52.15;32.00;;;0.40;99.90;;;;;;5181882;28;20043;-31
2024/01/29 07:04:57;;;;;;;44.80;29.48;;;0.40;99.90;;;;;;5198865;28;20038;-30
2024/01/29 07:07:28;;;;;;;44.35;29.45;;;0.60;99.90;;;;;;5188004;28;20043;-31
2024/01/29 07:09:59;;;;;;;40.95;25.38;;;0.70;99.90;;;;;;5187962;28;20299;-31
2024/01/29 07:12:31;;;;;;;48.67;29.13;;;1.10;99.90;;;;;;5196212;28;20211;-33
2024/01/29 07:15:03;;;;;;;46.97;27.23;;;1.30;99.90;;;;;;5202794;28;20131;-33
2024/01/29 07:17:34;;;;;;;44.42;26.38;;;1.60;99.90;;;;;;5186417;28;20206;-34
2024/01/29 07:20:06;;;;;;;38.80;22.63;;;1.90;99.90;;;;;;5186669;28;20312;-34
2024/01/29 07:22:38;;;;;;;41.83;24.92;;;2.00;99.90;;;;;;5188595;28;20043;-34
2024/01/29 07:25:09;;;;;;;34.33;22.05;;;2.20;99.90;;;;;;5184467;28;20029;-32
2024/01/29 07:27:40;;;;;;;38.15;21.83;;;2.50;99.90;;;;;;5186962;28;20041;-34
2024/01/29 07:30:12;;;;;;;25.60;19.27;;;2.60;99.90;;;;;;5156002;28;20048;-35
2024/01/29 07:32:43;;;;;;;24.23;15.95;;;2.80;99.90;;;;;;5191866;28;20539;-35
2024/01/29 07:35:15;;;;;;;23.90;15.40;;;3.00;99.90;;;;;;5188807;28;20037;-34
2024/01/29 07:37:46;;;;;;;28.27;17.63;;;3.20;99.90;;;;;;5184244;28;20052;-34
2024/01/29 07:40:18;;;;;;;27.48;17.73;;;3.40;99.90;;;;;;5182878;28;20037;-34
2024/01/29 07:42:49;;;;;;;23.58;14.60;;;3.60;99.90;;;;;;5198793;28;20037;-35
2024/01/29 07:45:21;;;;;;;21.33;12.70;;;3.70;6.60;;;;;;5189270;28;20037;-36
2024/01/29 07:47:52;;;;;;;21.15;13.35;;;4.10;1.00;;;;;;5186608;28;20037;-34
2024/01/29 07:50:24;;;;;;;21.83;12.88;;;4.10;1.00;;;;;;5182542;28;20293;-35
2024/01/29 07:52:55;;;;;;;18.65;12.52;;;4.20;99.90;;;;;;5191780;28;20474;-35
2024/01/29 07:55:26;;;;;;;22.17;13.82;;;4.40;99.90;;;;;;5182747;28;20037;-33
2024/01/29 07:57:57;;;;;;;18.27;12.77;;;4.70;47.70;;;;;;5186291;28;20171;-36
2024/01/29 08:00:29;;;;;;;18.58;12.32;;;4.80;1.00;;;;;;5192987;28;20100;-34
2024/01/29 08:03:00;;;;;;;20.67;12.07;;;4.90;1.00;;;;;;5202102;28;20157;-34
2024/01/29 08:05:31;;;;;;;19.83;12.05;;;5.20;1.00;;;;;;5182195;28;20033;-34
2024/01/29 08:08:03;;;;;;;24.00;12.57;;;5.50;1.00;;;;;;5184416;28;20229;-35
2024/01/29 08:10:35;;;;;;;21.23;12.20;;;5.90;1.00;;;;;;5187569;28;20481;-35
2024/01/29 08:13:06;;;;;;;15.52;10.45;;;5.90;91.30;;;;;;5197793;28;20245;-36
2024/01/29 08:15:37;;;;;;;17.73;12.73;;;6.20;1.00;;;;;;5178647;28;20195;-36
2024/01/29 08:18:08;;;;;;;16.85;11.40;;;6.20;99.90;;;;;;5190966;28;20067;-35
2024/01/29 08:20:40;;;;;;;17.83;10.70;;;6.20;99.90;;;;;;5187474;28;20253;-36
2024/01/29 08:23:11;;;;;;;15.98;11.25;;;6.20;99.90;;;;;;5187832;28;20032;-36
2024/01/29 08:25:42;;;;;;;18.50;12.07;;;5.40;99.40;;;;;;5176849;28;20341;-34
2024/01/29 08:28:14;;;;;;;16.92;12.25;;;5.70;99.90;;;;;;5182205;28;20044;-36
2024/01/29 08:30:45;;;;;;;17.33;11.23;;;5.50;1.00;;;;;;5181862;28;20331;-34
2024/01/29 08:33:16;;;;;;;19.35;11.65;;;5.80;1.00;;;;;;5186419;28;20041;-35
2024/01/29 08:35:47;;;;;;;17.45;11.32;;;6.70;99.90;;;;;;5178159;28;20033;-36
2024/01/29 08:38:19;;;;;;;19.13;12.40;;;6.90;1.00;;;;;;5183807;28;20242;-36
2024/01/29 08:40:50;;;;;;;16.38;11.43;;;7.40;1.00;;;;;;5187849;28;20036;-37
2024/01/29 08:43:22;;;;;;;16.00;10.57;;;6.80;1.00;;;;;;5186083;28;20536;-35
2024/01/29 08:45:53;;;;;;;16.83;11.85;;;6.90;99.90;;;;;;5180066;28;20336;-35
2024/01/29 08:48:24;;;;;;;20.90;11.43;;;7.30;99.90;;;;;;5183525;28;20113;-35
2024/01/29 08:50:55;;;;;;;13.40;10.38;;;6.90;1.00;;;;;;5184016;28;20037;-36
2024/01/29 08:53:27;;;;;;;21.48;10.50;;;6.60;99.90;;;;;;5184690;28;20033;-36
2024/01/29 08:55:58;;;;;;;24.58;16.40;;;6.40;99.90;;;;;;5178349;28;20219;-37
2024/01/29 08:58:30;;;;;;;22.40;12.80;;;6.30;1.00;;;;;;5177438;28;20037;-35
2024/01/29 09:01:02;;;;;;;20.20;12.93;;;6.40;99.90;;;;;;5177772;28;20045;-34
2024/01/29 09:03:33;;;;;;;19.95;11.85;;;6.60;99.90;;;;;;5181402;28;20034;-34
2024/01/29 09:06:05;;;;;;;19.27;11.55;;;6.90;99.90;;;;;;5197407;28;20029;-35
2024/01/29 09:08:36;;;;;;;17.05;10.82;;;6.60;99.90;;;;;;5175732;28;20044;-36
2024/01/29 09:11:07;;;;;;;17.58;11.60;;;6.90;1.00;;;;;;5184713;28;20222;-35
2024/01/29 09:13:38;;;;;;;15.77;9.90;;;7.30;12.60;;;;;;5181166;28;20029;-35
2024/01/29 09:16:10;;;;;;;21.33;11.20;;;7.10;1.00;;;;;;5184079;28;20247;-34
2024/01/29 09:18:41;;;;;;;18.25;10.65;;;7.30;1.00;;;;;;5178179;28;20036;-37
2024/01/29 09:21:12;;;;;;;18.20;11.20;;;6.00;1.00;;;;;;5182363;28;20051;-34
2024/01/29 09:23:43;;;;;;;19.77;12.23;;;6.60;1.00;;;;;;5183278;28;20025;-36
2024/01/29 09:26:14;;;;;;;19.63;12.10;;;6.60;1.00;;;;;;5186038;28;20013;-35
2024/01/29 09:28:45;;;;;;;19.30;12.73;;;6.80;40.90;;;;;;5183514;28;20189;-34
2024/01/29 09:31:17;;;;;;;16.27;11.70;;;7.10;99.90;;;;;;5181182;28;20093;-34
2024/01/29 09:33:48;;;;;;;17.38;11.32;;;7.40;99.90;;;;;;5183556;28;20584;-35
2024/01/29 09:36:19;;;;;;;19.60;12.77;;;7.30;99.90;;;;;;5166417;28;20213;-36
2024/01/29 09:38:50;;;;;;;14.75;10.88;;;7.80;1.00;;;;;;5177050;28;20036;-35
2024/01/29 09:41:21;;;;;;;18.48;11.80;;;7.10;99.90;;;;;;5183570;28;20238;-36
2024/01/29 09:43:56;;;;;;;18.17;12.55;;;7.70;1.00;;;;;;5175722;28;20040;-35
2024/01/29 09:46:28;;;;;;;16.27;11.60;;;8.10;1.00;;;;;;5172919;28;20040;-35
2024/01/29 09:49:00;;;;;;;16.45;11.70;;;8.10;99.90;;;;;;5175641;28;20024;-34
2024/01/29 09:51:35;;;;;;;19.05;11.60;;;8.00;1.00;;;;;;5169421;28;20040;-33
2024/01/29 09:54:07;;;;;;;15.98;11.07;;;8.30;99.90;;;;;;5182452;28;20358;-34
2024/01/29 09:56:38;;;;;;;17.40;11.65;;;7.70;1.00;;;;;;5184928;28;20234;-38
2024/01/29 09:59:10;;;;;;;17.50;11.90;;;7.90;1.00;;;;;;5185219;28;20030;-35
2024/01/29 10:01:42;;;;;;;10.88;8.85;;;8.80;99.90;;;;;;5182905;28;20226;-36
2024/01/29 10:04:13;;;;;;;14.13;10.13;;;7.80;1.00;;;;;;5178621;28;20345;-34
2024/01/29 10:06:45;;;;;;;20.50;12.70;;;7.40;1.00;;;;;;5179320;28;20231;-35
2024/01/29 10:09:16;;;;;;;19.75;13.15;;;7.50;1.00;;;;;;5180500;28;20053;-35
2024/01/29 10:11:49;;;;;;;16.27;11.77;;;8.00;99.90;;;;;;5185681;28;20039;-35
2024/01/29 10:14:21;;;;;;;17.25;11.35;;;8.40;1.00;;;;;;5182739;28;20352;-35
2024/01/29 10:16:52;;;;;;;18.63;12.32;;;8.00;1.00;;;;;;5179316;28;20037;-34
2024/01/29 10:19:24;;;;;;;22.67;12.40;;;8.00;1.00;;;;;;5178814;28;20341;-35
2024/01/29 10:21:55;;;;;;;23.20;14.10;;;8.50;99.90;;;;;;5185682;28;20037;-38
2024/01/29 10:24:26;;;;;;;22.23;14.38;;;9.10;99.90;;;;;;5168453;28;20663;-35
2024/01/29 10:27:06;;;;;;;20.08;14.00;;;10.10;1.00;;;;;;5182764;28;20044;-34
2024/01/29 10:29:48;;;;;;;20.40;13.23;;;10.80;1.00;;;;;;5182454;28;20040;-34
2024/01/29 10:32:23;;;;;;;15.23;11.98;;;10.50;37.90;;;;;;5181053;28;20029;-35
2024/01/29 10:34:55;;;;;;;20.90;13.82;;;9.60;99.90;;;;;;5183438;28;20028;-36
2024/01/29 10:37:27;;;;;;;22.48;13.70;;;10.10;99.90;;;;;;5190332;28;20037;-39
2024/01/29 10:40:01;;;;;;;17.98;11.93;;;10.80;99.90;;;;;;5180156;28;20029;-34
2024/01/29 10:42:33;;;;;;;20.55;12.93;;;10.40;99.90;;;;;;5185761;28;20025;-36
2024/01/29 10:45:05;;;;;;;21.45;14.52;;;10.40;1.00;;;;;;5175251;28;20034;-36
2024/01/29 10:47:45;;;;;;;15.07;11.65;;;10.70;99.90;;;;;;5179612;28;20194;-35
2024/01/29 10:50:19;;;;;;;17.92;11.25;;;10.50;1.00;;;;;;5184229;28;20327;-39
2024/01/29 10:52:53;;;;;;;20.27;14.15;;;9.40;1.00;;;;;;5178938;28;20465;-35
2024/01/29 10:55:24;;;;;;;20.65;14.30;;;9.70;99.90;;;;;;5173482;28;20033;-33
2024/01/29 10:58:00;;;;;;;14.23;11.80;;;10.40;99.90;;;;;;5187982;28;20049;-34
2024/01/29 11:00:35;;;;;;;19.13;13.35;;;9.40;1.00;;;;;;5193961;28;20265;-34
2024/01/29 11:03:09;;;;;;;17.30;12.63;;;9.40;12.70;;;;;;5186600;28;20032;-34
2024/01/29 11:05:49;;;;;;;18.20;11.38;;;10.20;99.90;;;;;;5192949;28;20037;-35
2024/01/29 11:08:25;;;;;;;18.42;11.68;;;10.10;99.90;;;;;;5191928;28;20039;-35
2024/01/29 11:10:57;;;;;;;15.30;11.00;;;10.40;39.00;;;;;;5182961;28;20029;-35
2024/01/29 11:13:30;;;;;;;17.27;12.73;;;10.70;1.00;;;;;;5181350;28;20029;-38
2024/01/29 11:16:01;;;;;;;14.50;10.73;;;10.60;1.00;;;;;;5184702;28;20033;-34
2024/01/29 11:18:34;;;;;;;15.98;11.25;;;9.20;1.00;;;;;;5190534;28;20357;-34
2024/01/29 11:21:10;;;;;;;16.65;11.25;;;9.60;1.00;;;;;;5186808;28;20021;-34
2024/01/29 11:23:43;;;;;;;16.60;10.55;;;9.60;1.00;;;;;;5169462;28;20233;-33
2024/01/29 11:26:15;;;;;;;17.25;11.13;;;9.10;3.10;;;;;;5164771;28;20048;-34
2024/01/29 11:28:55;;;;;;;17.30;12.45;;;9.10;1.00;;;;;;5195376;28;20402;-35
2024/01/29 11:31:39;;;;;;;15.60;11.27;;;9.10;99.90;;;;;;5183886;28;20043;-34
2024/01/29 11:34:12;;;;;;;14.43;10.70;;;8.90;1.00;;;;;;5178867;28;20252;-35
2024/01/29 11:36:51;;;;;;;16.27;10.50;;;8.70;20.40;;;;;;5188196;28;20369;-35
2024/01/29 11:39:24;;;;;;;16.25;10.45;;;9.10;99.90;;;;;;5182912;28;20203;-35
2024/01/29 11:41:56;;;;;;;17.50;12.63;;;9.50;1.00;;;;;;5179992;28;20529;-34
2024/01/29 11:44:29;;;;;;;21.70;12.63;;;10.40;99.90;;;;;;5205140;28;20286;-34
2024/01/29 11:47:08;;;;;;;16.05;11.40;;;11.30;99.90;;;;;;5179208;28;20211;-37
2024/01/29 11:49:39;;;;;;;14.90;10.90;;;10.80;99.90;;;;;;5178892;28;20124;-35
2024/01/29 11:52:10;;;;;;;18.75;12.77;;;10.50;60.70;;;;;;5183639;28;20028;-34
2024/01/29 11:54:42;;;;;;;16.83;10.73;;;10.70;99.90;;;;;;5185280;28;20287;-35
2024/01/29 11:57:13;;;;;;;13.88;10.55;;;11.50;99.90;;;;;;5179460;28;20305;-34
2024/01/29 11:59:45;;;;;;;15.90;11.50;;;10.80;1.00;;;;;;5176399;28;20028;-34
2024/01/29 12:02:16;;;;;;;15.27;10.50;;;11.80;99.90;;;;;;5185324;28;20025;-35
2024/01/29 12:04:47;;;;;;;16.75;11.32;;;12.50;1.00;;;;;;5185067;28;20282;-35
2024/01/29 12:07:19;;;;;;;14.20;9.95;;;12.50;1.00;;;;;;5187186;28;20033;-33
2024/01/29 12:09:50;;;;;;;18.60;10.85;;;11.70;1.00;;;;;;5190472;28;20313;-35
2024/01/29 12:12:21;;;;;;;14.57;10.57;;;11.10;1.00;;;;;;5193262;28;20037;-39
2024/01/29 12:14:52;;;;;;;14.13;10.38;;;11.30;1.00;;;;;;5190998;28;20041;-33
2024/01/29 12:17:24;;;;;;;15.20;10.77;;;12.40;1.00;;;;;;5201318;28;20332;-35
2024/01/29 12:19:55;;;;;;;15.05;10.88;;;14.00;1.00;;;;;;5182371;28;20037;-36
2024/01/29 12:22:26;;;;;;;16.15;11.20;;;13.40;1.00;;;;;;5195051;28;20028;-35
2024/01/29 12:25:00;;;;;;;13.57;10.23;;;15.20;1.00;;;;;;5176994;28;20059;-34
2024/01/29 12:27:31;;;;;;;16.92;11.90;;;15.40;99.90;;;;;;5188748;28;20042;-35
2024/01/29 12:30:10;;;;;;;14.25;10.30;;;15.50;99.90;;;;;;5175618;28;20337;-34
2024/01/29 12:32:45;;;;;;;14.27;9.63;;;14.20;1.00;;;;;;5187711;28;20033;-35
2024/01/29 12:35:28;;;;;;;16.75;11.00;;;15.30;1.00;;;;;;5183887;28;20033;-34
2024/01/29 12:38:07;;;;;;;11.38;9.32;;;15.80;1.00;;;;;;5185763;28;20033;-35
2024/01/29 12:40:39;;;;;;;13.95;10.30;;;16.30;1.00;;;;;;5186400;28;20036;-34
2024/01/29 12:43:11;;;;;;;11.85;9.23;;;15.60;1.00;;;;;;5189253;28;20029;-36
2024/01/29 12:45:44;;;;;;;14.95;9.75;;;15.10;1.00;;;;;;5170488;28;20106;-36
2024/01/29 12:48:19;;;;;;;17.27;10.32;;;15.30;1.00;;;;;;5180661;28;20313;-35
2024/01/29 12:50:51;;;;;;;14.43;9.68;;;14.90;1.00;;;;;;5184429;28;20283;-34
2024/01/29 12:53:22;;;;;;;14.45;9.60;;;14.80;1.00;;;;;;5185879;28;20120;-35
2024/01/29 12:55:53;;;;;;;12.85;8.75;;;13.70;1.00;;;;;;5201250;28;20295;-34